Time;durP1;ratioP1;P1;durP2;ratioP2;P2;SDS_P1;SDS_P2;PMS_P1;PMS_P2;Temp;Humidity;BMP_temperature;BMP_pressure;BME280_temperature;BME280_humidity;BME280_pressure;Samples;Min_cycle;Max_cycle;Signal;HPM_P1;HPM_P2
2020/12/07 00:02:22;;;;;;;16.33;14.93;;;1.80;81.10;;;;;;5109775;28;20099;-77
2020/12/07 00:04:54;;;;;;;16.13;14.73;;;1.90;80.90;;;;;;5072283;29;20051;-77
2020/12/07 00:07:26;;;;;;;15.48;14.18;;;1.90;80.90;;;;;;5095337;29;20059;-77
2020/12/07 00:10:01;;;;;;;15.10;13.90;;;1.90;80.70;;;;;;5108271;28;20047;-77
2020/12/07 00:12:33;;;;;;;15.38;13.98;;;2.00;80.50;;;;;;5094898;29;20047;-79
2020/12/07 00:15:06;;;;;;;14.80;13.55;;;2.00;80.40;;;;;;5102957;29;20051;-77
2020/12/07 00:17:38;;;;;;;15.27;13.98;;;2.00;80.20;;;;;;5094492;28;20075;-76
2020/12/07 00:20:10;;;;;;;15.32;14.10;;;2.10;80.30;;;;;;5092614;29;20043;-79
2020/12/07 00:22:41;;;;;;;15.85;14.55;;;2.10;80.20;;;;;;5093386;29;20469;-76
2020/12/07 00:25:13;;;;;;;15.95;14.65;;;2.10;80.30;;;;;;5093421;29;20095;-77
2020/12/07 00:27:44;;;;;;;15.65;14.35;;;2.10;80.00;;;;;;5089702;29;20434;-78
2020/12/07 00:30:16;;;;;;;15.88;14.55;;;2.10;79.90;;;;;;5106925;28;20076;-76
2020/12/07 00:32:47;;;;;;;16.52;15.13;;;2.10;79.90;;;;;;5066809;29;20048;-76
2020/12/07 00:35:19;;;;;;;16.20;14.80;;;2.10;79.80;;;;;;5091369;29;20047;-76
2020/12/07 00:37:50;;;;;;;16.38;14.98;;;2.10;80.00;;;;;;5107789;28;20060;-76
2020/12/07 00:40:22;;;;;;;16.52;15.13;;;2.10;79.90;;;;;;5105672;28;20105;-74
2020/12/07 00:42:54;;;;;;;16.30;14.77;;;2.10;79.90;;;;;;5096924;29;20043;-77
2020/12/07 00:45:28;;;;;;;16.15;14.65;;;2.10;80.20;;;;;;5091558;29;20039;-76
2020/12/07 00:48:01;;;;;;;15.90;14.50;;;2.10;79.90;;;;;;5092482;29;20048;-76
2020/12/07 00:50:33;;;;;;;16.02;14.63;;;2.10;79.90;;;;;;5102705;29;20132;-77
2020/12/07 00:53:05;;;;;;;16.75;15.25;;;2.10;79.70;;;;;;5096933;29;20052;-76
2020/12/07 00:55:39;;;;;;;15.18;13.98;;;2.10;79.70;;;;;;5093793;29;20051;-76
2020/12/07 00:58:10;;;;;;;14.88;13.68;;;2.10;80.00;;;;;;5096765;29;20580;-76
2020/12/07 01:00:42;;;;;;;14.60;13.38;;;2.10;80.70;;;;;;5107766;28;20071;-78
2020/12/07 01:03:14;;;;;;;14.10;12.90;;;2.10;79.90;;;;;;5094803;29;20059;-76
2020/12/07 01:05:45;;;;;;;14.40;13.30;;;2.10;79.90;;;;;;5097082;29;20055;-76
2020/12/07 01:08:18;;;;;;;15.15;13.90;;;2.10;80.10;;;;;;5092454;29;20043;-76
2020/12/07 01:10:57;;;;;;;14.65;13.45;;;2.10;80.00;;;;;;5094640;29;20050;-77
2020/12/07 01:13:30;;;;;;;;;;;2.10;80.60;;;;;;5098804;29;20598;-77
2020/12/07 01:16:03;;;;;;;14.93;13.65;;;2.00;81.00;;;;;;5097074;28;19926;-76
2020/12/07 01:18:35;;;;;;;15.10;13.82;;;2.00;80.90;;;;;;5099425;29;20636;-76
2020/12/07 01:21:08;;;;;;;15.75;14.32;;;1.90;81.10;;;;;;5092711;29;20115;-77
2020/12/07 01:23:44;;;;;;;15.27;13.98;;;2.00;80.90;;;;;;5099536;29;20044;-76
2020/12/07 01:26:17;;;;;;;15.13;13.88;;;1.90;80.90;;;;;;5112345;28;20190;-78
2020/12/07 01:28:50;;;;;;;15.32;14.05;;;2.00;80.80;;;;;;5109216;28;20062;-80
2020/12/07 01:31:22;;;;;;;15.50;14.20;;;2.00;80.70;;;;;;5094993;29;20043;-79
2020/12/07 01:33:54;;;;;;;16.90;15.40;;;2.00;80.60;;;;;;5069937;29;20720;-80
2020/12/07 01:36:26;;;;;;;15.70;14.40;;;2.10;80.70;;;;;;5091844;29;20044;-80
2020/12/07 01:38:59;;;;;;;15.77;14.48;;;2.10;80.40;;;;;;5083950;29;20056;-82
2020/12/07 01:41:30;;;;;;;16.70;15.23;;;2.10;80.30;;;;;;5092404;29;20043;-80
2020/12/07 01:44:02;;;;;;;16.20;14.88;;;2.10;80.20;;;;;;5075760;29;20054;-80
2020/12/07 01:46:35;;;;;;;16.40;15.00;;;2.10;80.20;;;;;;5096312;29;20129;-80
2020/12/07 01:49:08;;;;;;;15.88;14.48;;;2.10;80.00;;;;;;5095105;29;20049;-80
2020/12/07 01:51:41;;;;;;;16.15;14.75;;;2.10;79.90;;;;;;5098420;28;20054;-79
2020/12/07 01:54:17;;;;;;;16.48;15.07;;;2.10;79.90;;;;;;5095404;29;20126;-80
2020/12/07 01:56:54;;;;;;;16.10;14.70;;;2.20;79.80;;;;;;5108353;28;20074;-81
2020/12/07 01:59:26;;;;;;;16.65;15.25;;;2.20;79.70;;;;;;5083070;29;20528;-81
2020/12/07 02:01:58;;;;;;;16.15;14.75;;;2.10;79.70;;;;;;5096567;29;20098;-79
2020/12/07 02:04:30;;;;;;;15.20;14.00;;;2.10;79.70;;;;;;5090578;29;20052;-79
2020/12/07 02:07:03;;;;;;;15.15;13.88;;;2.20;79.60;;;;;;5091160;29;20126;-81
2020/12/07 02:09:34;;;;;;;15.07;13.85;;;2.20;79.70;;;;;;5086952;29;20139;-80
2020/12/07 02:12:06;;;;;;;15.13;13.85;;;2.20;79.70;;;;;;5093678;29;20514;-79
2020/12/07 02:14:38;;;;;;;14.98;13.68;;;2.20;79.60;;;;;;5096048;29;20047;-80
2020/12/07 02:17:10;;;;;;;15.32;14.02;;;2.20;79.70;;;;;;5095630;29;20064;-80
2020/12/07 02:19:42;;;;;;;15.13;13.93;;;2.20;79.70;;;;;;5099480;28;20502;-78
2020/12/07 02:22:15;;;;;;;14.95;13.75;;;2.20;79.50;;;;;;5105113;28;20047;-78
2020/12/07 02:25:00;;;;;;;15.60;14.30;;;2.20;79.60;;;;;;5098899;29;20044;-79
2020/12/07 02:27:35;;;;;;;15.55;14.25;;;2.20;79.50;;;;;;5111060;28;20044;-79
2020/12/07 02:30:07;;;;;;;15.63;14.32;;;2.20;79.60;;;;;;5111561;28;20421;-80
2020/12/07 02:32:39;;;;;;;15.60;14.27;;;2.20;79.60;;;;;;5096854;29;20051;-78
2020/12/07 02:35:19;;;;;;;14.70;13.50;;;2.20;79.50;;;;;;5095964;29;20091;-78
2020/12/07 02:37:54;;;;;;;14.75;13.57;;;2.20;79.60;;;;;;5096697;29;20052;-79
2020/12/07 02:40:28;;;;;;;14.75;13.55;;;2.20;79.50;;;;;;5075013;29;20534;-78
2020/12/07 02:43:03;;;;;;;14.35;13.25;;;2.20;79.40;;;;;;5092593;29;20040;-77
2020/12/07 02:45:37;;;;;;;14.40;13.30;;;2.10;79.60;;;;;;5095174;29;20044;-78
2020/12/07 02:48:14;;;;;;;14.77;13.65;;;2.20;79.60;;;;;;5095536;29;20125;-78
2020/12/07 02:50:49;;;;;;;14.43;13.32;;;2.10;79.50;;;;;;5105384;28;20047;-78
2020/12/07 02:53:22;;;;;;;14.30;13.20;;;2.10;79.70;;;;;;5106916;28;20108;-80
2020/12/07 02:55:54;;;;;;;14.00;12.90;;;2.10;79.50;;;;;;5091892;29;20146;-80
2020/12/07 02:58:25;;;;;;;15.13;13.93;;;2.10;79.60;;;;;;5105964;28;20526;-78
2020/12/07 03:01:00;;;;;;;14.52;13.32;;;2.10;79.50;;;;;;5104393;28;20039;-79
2020/12/07 03:03:33;;;;;;;14.75;13.57;;;2.10;79.40;;;;;;5108633;28;20059;-79
2020/12/07 03:06:05;;;;;;;14.60;13.35;;;2.10;79.10;;;;;;5095945;28;20047;-79
2020/12/07 03:08:37;;;;;;;14.20;13.10;;;2.10;79.10;;;;;;5112638;28;20055;-79
2020/12/07 03:11:12;;;;;;;13.90;12.82;;;2.10;79.10;;;;;;5095346;29;20054;-81
2020/12/07 03:13:45;;;;;;;14.50;13.30;;;2.00;79.00;;;;;;5096546;29;20059;-79
2020/12/07 03:16:17;;;;;;;14.50;13.30;;;2.00;79.00;;;;;;5093184;29;20036;-79
2020/12/07 03:18:48;;;;;;;15.07;13.82;;;2.00;79.00;;;;;;5096445;29;20091;-78
2020/12/07 03:21:23;;;;;;;15.15;13.85;;;2.00;79.00;;;;;;5092989;29;20040;-78
2020/12/07 03:24:05;;;;;;;14.40;13.30;;;1.90;78.90;;;;;;5094666;29;20052;-78
2020/12/07 03:26:38;;;;;;;13.63;12.52;;;1.90;78.70;;;;;;5078419;29;20127;-79
2020/12/07 03:29:12;;;;;;;14.50;13.30;;;1.90;78.80;;;;;;5092864;29;20048;-79
2020/12/07 03:31:47;;;;;;;14.45;13.20;;;1.90;78.80;;;;;;5097037;29;20402;-79
2020/12/07 03:34:22;;;;;;;15.45;14.15;;;1.90;79.10;;;;;;5096363;29;20050;-78
2020/12/07 03:36:55;;;;;;;14.98;13.57;;;1.80;78.90;;;;;;5110982;28;20135;-79
2020/12/07 03:39:39;;;;;;;14.25;13.15;;;1.80;78.90;;;;;;5111467;28;20100;-79
2020/12/07 03:42:10;;;;;;;15.32;14.02;;;1.80;78.90;;;;;;5087955;29;20454;-78
2020/12/07 03:44:42;;;;;;;14.13;12.93;;;1.80;78.70;;;;;;5100506;29;20059;-79
2020/12/07 03:47:16;;;;;;;13.65;12.55;;;1.80;78.40;;;;;;5110452;28;20130;-79
2020/12/07 03:49:48;;;;;;;13.65;12.55;;;1.70;78.30;;;;;;5099773;29;20072;-79
2020/12/07 03:52:22;;;;;;;14.32;13.23;;;1.70;78.50;;;;;;5107060;28;20044;-78
2020/12/07 03:54:54;;;;;;;14.10;13.00;;;1.70;78.90;;;;;;5111252;28;20050;-79
2020/12/07 03:57:26;;;;;;;13.68;12.48;;;1.60;79.10;;;;;;5061142;29;20040;-79
2020/12/07 03:59:59;;;;;;;12.65;11.65;;;1.50;78.40;;;;;;5113255;28;20039;-81
2020/12/07 04:02:31;;;;;;;12.52;11.63;;;1.50;78.90;;;;;;5100162;29;20118;-80
2020/12/07 04:05:15;;;;;;;13.40;12.35;;;1.40;79.30;;;;;;5087142;29;20063;-78
2020/12/07 04:07:48;;;;;;;14.98;13.75;;;1.30;79.30;;;;;;5098636;29;20051;-80
2020/12/07 04:10:19;;;;;;;13.18;12.18;;;1.20;79.90;;;;;;5100583;29;20048;-79
2020/12/07 04:12:51;;;;;;;13.57;12.48;;;1.20;79.80;;;;;;5108062;28;20052;-79
2020/12/07 04:15:22;;;;;;;13.20;12.20;;;1.20;79.50;;;;;;5114083;28;20055;-78
2020/12/07 04:17:56;;;;;;;13.30;12.30;;;1.30;79.40;;;;;;5099774;29;20082;-79
2020/12/07 04:20:28;;;;;;;12.90;11.90;;;1.20;79.40;;;;;;5093393;29;20059;-79
2020/12/07 04:22:59;;;;;;;13.05;12.05;;;1.10;78.50;;;;;;5112183;28;20107;-79
2020/12/07 04:25:31;;;;;;;13.27;12.27;;;1.10;78.60;;;;;;5096078;29;20083;-80
2020/12/07 04:28:03;;;;;;;14.07;12.88;;;1.10;78.30;;;;;;5103456;29;20059;-81
2020/12/07 04:30:38;;;;;;;14.93;13.63;;;1.10;78.10;;;;;;5073230;29;20501;-81
2020/12/07 04:33:10;;;;;;;15.00;13.70;;;1.10;78.40;;;;;;5095462;29;20107;-80
2020/12/07 04:35:41;;;;;;;15.38;13.85;;;1.00;79.30;;;;;;5071937;29;20130;-79
2020/12/07 04:38:13;;;;;;;14.95;13.75;;;1.00;80.80;;;;;;5094414;29;20050;-78
2020/12/07 04:40:45;;;;;;;18.33;13.73;;;1.00;80.60;;;;;;5110528;28;20228;-77
2020/12/07 04:43:17;;;;;;;16.20;14.65;;;1.00;82.30;;;;;;5094116;29;20454;-78
2020/12/07 04:45:49;;;;;;;15.93;14.27;;;1.00;82.10;;;;;;5100424;29;20050;-78
2020/12/07 04:48:22;;;;;;;16.02;14.73;;;1.00;82.50;;;;;;5098240;29;20044;-78
2020/12/07 04:50:54;;;;;;;16.02;14.70;;;1.10;82.00;;;;;;5103724;29;20417;-78
2020/12/07 04:53:26;;;;;;;15.20;13.90;;;1.10;82.70;;;;;;5098930;29;20059;-78
2020/12/07 04:56:01;;;;;;;15.20;13.90;;;1.10;82.30;;;;;;5096399;29;20050;-76
2020/12/07 04:58:34;;;;;;;14.80;13.60;;;1.10;82.10;;;;;;5114859;28;20127;-77
2020/12/07 05:01:05;;;;;;;14.68;13.48;;;1.10;82.00;;;;;;5113229;28;20271;-77
2020/12/07 05:03:36;;;;;;;14.82;13.70;;;1.10;81.90;;;;;;5095329;29;20056;-78
2020/12/07 05:06:13;;;;;;;14.40;13.30;;;1.10;81.70;;;;;;5097857;29;20048;-78
2020/12/07 05:08:46;;;;;;;14.85;13.68;;;1.10;81.60;;;;;;5096141;29;20074;-78
2020/12/07 05:11:17;;;;;;;15.75;14.35;;;1.10;81.20;;;;;;5093192;29;20048;-78
2020/12/07 05:13:57;;;;;;;16.95;15.45;;;1.20;81.10;;;;;;5095566;29;20040;-78
2020/12/07 05:16:29;;;;;;;16.85;15.45;;;1.20;80.80;;;;;;5094806;29;20477;-78
2020/12/07 05:19:01;;;;;;;17.35;15.77;;;1.30;80.90;;;;;;5081525;29;20043;-77
2020/12/07 05:21:34;;;;;;;15.73;14.43;;;1.30;81.00;;;;;;5099162;29;20043;-79
2020/12/07 05:24:06;;;;;;;15.85;14.55;;;1.30;80.80;;;;;;5091305;29;20052;-78
2020/12/07 05:26:39;;;;;;;14.50;13.40;;;1.30;81.00;;;;;;5101532;29;20489;-79
2020/12/07 05:29:15;;;;;;;15.48;14.27;;;1.20;80.90;;;;;;5095610;29;20095;-78
2020/12/07 05:31:49;;;;;;;14.45;13.27;;;1.30;81.10;;;;;;5097948;29;20518;-78
2020/12/07 05:34:24;;;;;;;13.98;12.88;;;1.30;81.10;;;;;;5090414;29;20048;-78
2020/12/07 05:36:56;;;;;;;14.43;13.32;;;1.30;81.40;;;;;;5112578;28;20044;-79
2020/12/07 05:39:28;;;;;;;14.80;13.60;;;1.30;81.40;;;;;;5095372;29;20040;-79
2020/12/07 05:42:01;;;;;;;14.07;12.98;;;1.30;81.40;;;;;;5111858;28;20040;-78
2020/12/07 05:44:34;;;;;;;14.35;13.25;;;1.20;81.30;;;;;;5107541;29;20102;-79
2020/12/07 05:47:07;;;;;;;14.05;12.93;;;1.20;81.20;;;;;;5103213;29;20043;-78
2020/12/07 05:49:38;;;;;;;13.55;12.45;;;1.20;81.10;;;;;;5096466;29;20445;-79
2020/12/07 05:52:11;;;;;;;13.18;12.07;;;1.20;81.00;;;;;;5094422;29;20048;-79
2020/12/07 05:54:43;;;;;;;13.50;12.40;;;1.20;80.60;;;;;;5098772;29;20503;-79
2020/12/07 05:57:17;;;;;;;12.98;11.98;;;1.20;80.30;;;;;;5104572;28;20047;-80
2020/12/07 05:59:56;;;;;;;12.77;11.77;;;1.20;79.90;;;;;;5096001;28;20119;-83
2020/12/07 06:02:27;;;;;;;12.95;11.95;;;1.10;79.90;;;;;;5098897;29;20052;-81
2020/12/07 06:05:02;;;;;;;13.90;12.70;;;1.00;78.10;;;;;;5110415;28;20056;-81
2020/12/07 06:07:36;;;;;;;13.13;12.02;;;0.80;79.10;;;;;;5100347;29;20063;-79
2020/12/07 06:10:07;;;;;;;12.82;11.82;;;0.70;79.50;;;;;;5105235;29;20047;-79
2020/12/07 06:12:43;;;;;;;13.15;12.05;;;0.70;79.90;;;;;;5101650;28;20102;-80
2020/12/07 06:15:19;;;;;;;13.63;12.50;;;0.60;80.10;;;;;;5090643;29;20067;-79
2020/12/07 06:17:50;;;;;;;13.93;12.73;;;0.60;80.10;;;;;;5094961;29;20273;-79
2020/12/07 06:20:35;;;;;;;13.90;12.60;;;0.60;80.10;;;;;;5093319;28;20036;-79
2020/12/07 06:23:07;;;;;;;13.27;12.18;;;0.60;79.40;;;;;;5094243;29;20073;-80
2020/12/07 06:25:42;;;;;;;13.50;12.40;;;0.50;79.00;;;;;;5093338;29;20063;-78
2020/12/07 06:28:14;;;;;;;13.55;12.45;;;0.40;78.70;;;;;;5090682;29;20102;-78
2020/12/07 06:30:50;;;;;;;14.00;12.80;;;0.30;79.10;;;;;;5096946;28;20036;-79
2020/12/07 06:33:22;;;;;;;13.20;12.10;;;0.30;79.50;;;;;;5095999;29;20468;-79
2020/12/07 06:35:54;;;;;;;13.35;12.25;;;0.30;79.70;;;;;;5088631;29;20036;-77
2020/12/07 06:38:38;;;;;;;13.23;12.13;;;0.20;79.20;;;;;;5110442;28;20048;-79
2020/12/07 06:41:10;;;;;;;13.73;12.63;;;0.10;79.30;;;;;;5092894;28;20035;-79
2020/12/07 06:43:42;;;;;;;14.77;13.48;;;0.10;79.50;;;;;;5081258;29;20040;-79
2020/12/07 06:46:54;;;;;;;12.88;11.77;;;0.10;78.00;;;;;;5088144;29;20075;-82
2020/12/07 06:49:40;;;;;;;12.50;11.32;;;-0.10;77.40;;;;;;5099402;29;20075;-81
2020/12/07 06:52:18;;;;;;;12.45;11.40;;;-0.20;78.30;;;;;;5091332;29;20115;-82
2020/12/07 06:55:06;;;;;;;13.90;12.60;;;-0.30;78.50;;;;;;5098241;29;20071;-81
2020/12/07 06:57:51;;;;;;;13.57;12.38;;;-0.20;77.50;;;;;;5093082;28;20051;-81
2020/12/07 07:00:27;;;;;;;12.60;11.50;;;-0.20;78.60;;;;;;5102891;29;20048;-82
2020/12/07 07:03:00;;;;;;;13.38;12.18;;;-0.20;79.20;;;;;;5107453;29;20048;-82
2020/12/07 07:05:32;;;;;;;13.20;12.00;;;-0.20;79.80;;;;;;5101590;29;20056;-80
2020/12/07 07:08:05;;;;;;;13.63;12.25;;;-0.20;80.20;;;;;;5109685;29;20039;-82
2020/12/07 07:10:36;;;;;;;14.30;13.00;;;-0.20;79.90;;;;;;5115681;29;20039;-83
2020/12/07 07:13:11;;;;;;;12.32;11.13;;;-0.10;80.80;;;;;;5105164;29;20055;-83
2020/12/07 07:15:43;;;;;;;13.70;12.43;;;-0.10;80.90;;;;;;5098156;29;20056;-83
2020/12/07 07:18:14;;;;;;;13.20;12.00;;;0.00;81.10;;;;;;5095536;29;20047;-83
2020/12/07 07:20:46;;;;;;;13.32;12.13;;;-0.10;80.70;;;;;;5098154;29;20044;-82
2020/12/07 07:23:18;;;;;;;14.10;12.82;;;-0.10;80.60;;;;;;5098217;29;20043;-83
2020/12/07 07:26:09;;;;;;;14.20;12.93;;;-0.10;81.00;;;;;;5094247;29;20055;-82
2020/12/07 07:28:41;;;;;;;14.38;13.07;;;-0.10;81.10;;;;;;5099508;29;20044;-82
2020/12/07 07:31:14;;;;;;;16.60;15.02;;;0.00;81.20;;;;;;5093781;29;20286;-83
2020/12/07 07:33:45;;;;;;;18.10;16.30;;;0.00;81.00;;;;;;5092434;29;20406;-82
2020/12/07 07:36:24;;;;;;;16.30;14.90;;;0.10;80.80;;;;;;5099080;29;20358;-83
2020/12/07 07:39:00;;;;;;;16.30;15.00;;;0.10;80.80;;;;;;5097410;29;20581;-82
2020/12/07 07:41:32;;;;;;;13.10;12.00;;;0.20;80.70;;;;;;5093717;29;20409;-82
2020/12/07 07:44:04;;;;;;;13.00;11.90;;;0.20;80.50;;;;;;5094125;29;20124;-83
2020/12/07 07:46:38;;;;;;;13.55;12.45;;;0.10;80.60;;;;;;5090339;29;20067;-82
2020/12/07 07:49:35;;;;;;;13.57;12.48;;;0.10;80.80;;;;;;5089686;29;20044;-82
2020/12/07 07:58:52;;;;;;;12.90;11.82;;;0.20;80.40;;;;;;5076886;29;20044;-82
2020/12/07 08:17:54;;;;;;;12.77;11.77;;;-0.20;78.10;;;;;;5096626;29;20426;-80
2020/12/07 08:20:38;;;;;;;13.02;11.95;;;-0.20;77.70;;;;;;5092660;29;20044;-80
2020/12/07 08:23:10;;;;;;;12.98;11.88;;;-0.30;77.80;;;;;;5090269;29;20802;-79
2020/12/07 08:25:51;;;;;;;14.07;12.68;;;-0.30;77.90;;;;;;5080897;29;20478;-79
2020/12/07 08:28:33;;;;;;;13.57;12.38;;;-0.30;77.40;;;;;;5088037;29;20163;-78
2020/12/07 08:31:17;;;;;;;11.88;10.88;;;-0.40;77.80;;;;;;5091124;29;20052;-80
2020/12/07 08:34:02;;;;;;;11.57;10.50;;;-0.40;78.10;;;;;;5089147;29;20047;-79
2020/12/07 08:36:34;;;;;;;11.85;10.90;;;-0.40;77.80;;;;;;5095674;29;20414;-79
2020/12/07 08:39:07;;;;;;;11.32;10.43;;;-0.40;78.00;;;;;;5089183;29;20153;-80
2020/12/07 08:41:39;;;;;;;12.05;11.05;;;-0.30;77.80;;;;;;5088511;29;20056;-79
2020/12/07 08:44:10;;;;;;;11.60;10.70;;;-0.30;79.30;;;;;;5098761;29;20122;-79
2020/12/07 08:46:46;;;;;;;11.85;10.93;;;-0.30;78.50;;;;;;5096652;29;20075;-79
2020/12/07 08:49:18;;;;;;;13.10;12.00;;;-0.20;79.70;;;;;;5096214;29;20044;-79
2020/12/07 08:51:49;;;;;;;12.80;11.80;;;-0.10;81.30;;;;;;5092237;29;20044;-79
2020/12/07 08:54:20;;;;;;;11.80;10.90;;;0.00;81.00;;;;;;5095523;29;20052;-80
2020/12/07 08:56:52;;;;;;;12.23;11.15;;;0.00;80.10;;;;;;5090677;29;20055;-81
2020/12/07 08:59:23;;;;;;;12.30;11.30;;;0.10;79.90;;;;;;5104274;28;20044;-79
2020/12/07 09:01:55;;;;;;;12.90;11.82;;;0.00;79.50;;;;;;5097245;29;20063;-80
2020/12/07 09:04:26;;;;;;;12.45;11.40;;;0.10;80.00;;;;;;5088916;29;20506;-80
2020/12/07 09:07:04;;;;;;;12.90;11.80;;;0.10;80.20;;;;;;5090146;29;20740;-79
2020/12/07 09:09:35;;;;;;;12.05;11.05;;;0.20;80.50;;;;;;5089790;29;20541;-79
2020/12/07 09:12:07;;;;;;;12.40;11.10;;;0.20;80.20;;;;;;5096368;29;20059;-80
2020/12/07 09:14:38;;;;;;;11.65;10.75;;;0.30;80.20;;;;;;5090156;29;20044;-80
2020/12/07 09:17:09;;;;;;;11.63;10.73;;;0.40;79.80;;;;;;5095499;29;20044;-80
2020/12/07 09:19:41;;;;;;;12.10;11.18;;;0.50;80.00;;;;;;5096360;29;20496;-81
2020/12/07 09:22:13;;;;;;;12.10;11.10;;;0.70;80.00;;;;;;5094838;29;20043;-80
2020/12/07 09:24:45;;;;;;;12.10;11.10;;;0.70;79.40;;;;;;5090083;29;20082;-79
2020/12/07 09:27:16;;;;;;;12.60;11.60;;;0.90;79.50;;;;;;5090647;29;20056;-80
2020/12/07 09:29:48;;;;;;;12.60;11.60;;;1.10;79.30;;;;;;5090725;29;20886;-80
2020/12/07 09:32:19;;;;;;;12.57;11.55;;;1.30;79.40;;;;;;5088632;29;20063;-80
2020/12/07 09:34:51;;;;;;;12.75;11.75;;;1.50;79.10;;;;;;5096967;29;20449;-81
2020/12/07 09:37:22;;;;;;;12.38;11.38;;;1.70;78.60;;;;;;5089406;29;20096;-80
2020/12/07 09:39:54;;;;;;;13.07;12.07;;;1.80;77.70;;;;;;5091704;29;20470;-80
2020/12/07 09:42:25;;;;;;;12.80;11.80;;;1.90;78.60;;;;;;5086063;29;20146;-80
2020/12/07 09:44:59;;;;;;;12.63;11.65;;;2.10;78.40;;;;;;5081248;29;20525;-80
2020/12/07 09:47:30;;;;;;;12.73;11.73;;;2.20;77.90;;;;;;5086699;29;20040;-80
2020/12/07 09:50:07;;;;;;;13.13;11.93;;;2.40;78.10;;;;;;5089844;29;20048;-80
2020/12/07 09:52:56;;;;;;;12.85;11.85;;;2.50;77.40;;;;;;5092186;29;20070;-80
2020/12/07 09:55:28;;;;;;;13.27;12.17;;;2.50;76.90;;;;;;5096508;28;20102;-80
2020/12/07 09:57:59;;;;;;;12.77;11.77;;;2.60;77.90;;;;;;5096664;29;20701;-80
2020/12/07 10:00:31;;;;;;;12.98;11.77;;;2.60;76.40;;;;;;5096364;29;20051;-81
2020/12/07 10:03:02;;;;;;;13.07;12.00;;;2.50;74.80;;;;;;5093006;29;20515;-80
2020/12/07 10:05:34;;;;;;;13.40;12.30;;;2.40;75.70;;;;;;5095495;29;20043;-81
2020/12/07 10:08:05;;;;;;;12.75;11.65;;;2.40;74.90;;;;;;5092557;29;20044;-80
2020/12/07 10:10:37;;;;;;;13.43;12.32;;;2.40;75.80;;;;;;5092747;29;20044;-80
2020/12/07 10:13:12;;;;;;;12.80;11.80;;;2.40;76.30;;;;;;5091389;29;20035;-80
2020/12/07 10:15:43;;;;;;;12.80;11.80;;;2.50;76.20;;;;;;5089007;29;20103;-80
2020/12/07 10:18:15;;;;;;;12.45;11.45;;;2.60;76.40;;;;;;5094896;29;20052;-80
2020/12/07 10:20:48;;;;;;;12.93;11.82;;;2.60;75.20;;;;;;5109226;28;20056;-80
2020/12/07 10:23:19;;;;;;;13.48;12.38;;;2.60;75.90;;;;;;5095473;29;20306;-80
2020/12/07 10:25:51;;;;;;;12.63;11.52;;;2.70;76.10;;;;;;5094562;29;20043;-81
2020/12/07 10:28:31;;;;;;;;;;;2.70;75.30;;;;;;5096178;29;20171;-79
2020/12/07 10:31:03;;;;;;;12.48;11.48;;;2.70;75.80;;;;;;5079649;29;19930;-80
2020/12/07 10:33:34;;;;;;;12.60;11.50;;;2.60;75.90;;;;;;5090976;29;20411;-79
2020/12/07 10:36:07;;;;;;;12.90;11.88;;;2.70;75.80;;;;;;5094798;29;20118;-80
2020/12/07 10:38:39;;;;;;;12.02;11.02;;;2.80;75.30;;;;;;5095786;29;20047;-80
2020/12/07 10:41:11;;;;;;;12.48;11.48;;;2.80;75.80;;;;;;5093003;29;20458;-80
2020/12/07 10:43:44;;;;;;;12.30;11.30;;;2.80;76.10;;;;;;5093094;29;20047;-78
2020/12/07 10:46:16;;;;;;;13.23;12.13;;;2.80;75.80;;;;;;5092095;29;20051;-79
2020/12/07 10:48:47;;;;;;;12.95;11.95;;;2.90;76.30;;;;;;5095675;29;20051;-79
2020/12/07 10:51:19;;;;;;;12.52;11.52;;;2.80;75.80;;;;;;5092974;29;20051;-79
2020/12/07 10:53:50;;;;;;;12.82;11.80;;;2.70;76.20;;;;;;5094477;29;20051;-79
2020/12/07 10:56:21;;;;;;;13.02;11.95;;;2.80;77.00;;;;;;5095910;29;20606;-80
2020/12/07 10:58:54;;;;;;;13.23;12.13;;;2.80;76.30;;;;;;5095074;29;20192;-80
2020/12/07 11:01:25;;;;;;;13.70;12.60;;;2.90;77.00;;;;;;5088632;29;20514;-80
2020/12/07 11:03:57;;;;;;;13.48;12.38;;;3.00;76.50;;;;;;5090481;29;20047;-80
2020/12/07 11:06:32;;;;;;;13.52;12.43;;;3.20;76.70;;;;;;5079396;29;20088;-80
2020/12/07 11:09:08;;;;;;;13.40;12.30;;;3.30;75.20;;;;;;5095625;29;20435;-79
2020/12/07 11:11:43;;;;;;;14.85;13.65;;;3.40;75.80;;;;;;5105618;28;20066;-80
2020/12/07 11:14:15;;;;;;;14.32;13.07;;;3.50;74.90;;;;;;5090575;29;20044;-79
2020/12/07 11:16:46;;;;;;;14.60;13.30;;;3.40;75.30;;;;;;5091960;29;20048;-80
2020/12/07 11:19:18;;;;;;;15.02;13.65;;;3.40;75.10;;;;;;5094915;29;20052;-80
2020/12/07 11:21:49;;;;;;;15.70;14.10;;;3.50;75.30;;;;;;5091536;29;20122;-79
2020/12/07 11:24:21;;;;;;;15.75;14.25;;;3.50;75.10;;;;;;5095423;29;20047;-82
2020/12/07 11:26:52;;;;;;;15.73;14.32;;;3.50;74.70;;;;;;5097401;29;20134;-79
2020/12/07 11:29:24;;;;;;;14.73;13.38;;;3.50;74.90;;;;;;5107154;28;20054;-79
2020/12/07 11:31:56;;;;;;;14.65;13.35;;;3.70;74.40;;;;;;5094628;29;20052;-80
2020/12/07 11:34:27;;;;;;;15.10;13.70;;;3.70;74.40;;;;;;5095509;29;20043;-78
2020/12/07 11:36:59;;;;;;;15.23;13.82;;;3.80;73.20;;;;;;5109148;28;20450;-78
2020/12/07 11:42:37;;;;;;;13.93;12.82;;;3.60;74.20;;;;;;5089108;29;20125;-80
2020/12/07 11:45:08;;;;;;;13.98;12.77;;;3.50;73.90;;;;;;5096617;29;20509;-79
2020/12/07 11:47:40;;;;;;;13.95;12.75;;;3.50;74.70;;;;;;5093306;29;20448;-79
2020/12/07 11:50:11;;;;;;;13.75;12.55;;;3.50;75.10;;;;;;5096549;29;20123;-80
2020/12/07 11:52:43;;;;;;;13.60;12.50;;;3.60;75.00;;;;;;5099270;29;20102;-79
2020/12/07 11:55:14;;;;;;;14.52;13.32;;;3.60;75.00;;;;;;5097353;29;20036;-79
2020/12/07 11:57:45;;;;;;;14.52;13.32;;;3.70;75.10;;;;;;5095901;29;20082;-80
2020/12/07 12:00:17;;;;;;;14.15;12.98;;;3.70;74.50;;;;;;5098233;29;20451;-79
2020/12/07 12:02:48;;;;;;;13.73;12.63;;;3.70;74.50;;;;;;5098864;29;20048;-79
2020/12/07 12:05:20;;;;;;;13.90;12.70;;;3.50;74.80;;;;;;5098137;29;20055;-79
2020/12/07 12:07:51;;;;;;;13.60;12.50;;;3.30;75.40;;;;;;5098034;29;20402;-80
2020/12/07 12:10:23;;;;;;;15.52;14.13;;;3.40;75.70;;;;;;5095699;29;20059;-80
2020/12/07 12:12:54;;;;;;;14.10;12.98;;;3.50;75.50;;;;;;5098637;29;20583;-80
2020/12/07 12:15:26;;;;;;;14.02;12.82;;;3.60;75.50;;;;;;5095227;29;20043;-80
2020/12/07 12:17:57;;;;;;;12.80;11.77;;;3.60;74.80;;;;;;5081812;29;20036;-78
2020/12/07 12:20:29;;;;;;;13.65;12.55;;;3.50;76.20;;;;;;5108902;28;20522;-80
2020/12/07 12:23:00;;;;;;;13.77;12.68;;;3.50;75.60;;;;;;5097387;29;20059;-82
2020/12/07 12:25:32;;;;;;;13.48;12.38;;;3.60;75.90;;;;;;5111581;28;20119;-78
2020/12/07 12:28:03;;;;;;;13.25;12.15;;;3.60;75.40;;;;;;5113667;28;20048;-79
2020/12/07 12:30:34;;;;;;;13.35;12.18;;;3.60;74.20;;;;;;5095285;29;20043;-81
2020/12/07 12:33:06;;;;;;;13.70;12.60;;;3.60;74.30;;;;;;5106890;28;20047;-80
2020/12/07 12:35:37;;;;;;;13.98;12.88;;;3.60;75.30;;;;;;5061450;29;20110;-80
2020/12/07 12:38:09;;;;;;;13.68;12.48;;;3.60;74.50;;;;;;5094528;29;20691;-80
2020/12/07 12:40:41;;;;;;;13.82;12.63;;;3.50;74.50;;;;;;5077075;29;20103;-80
2020/12/07 12:43:12;;;;;;;14.45;13.25;;;3.40;75.00;;;;;;5091929;29;20043;-80
2020/12/07 12:45:44;;;;;;;14.80;13.25;;;3.40;75.30;;;;;;5091759;29;20066;-80
2020/12/07 12:48:15;;;;;;;13.90;12.70;;;3.40;75.30;;;;;;5095331;29;20395;-79
2020/12/07 12:50:47;;;;;;;14.95;13.60;;;3.40;74.70;;;;;;5094197;29;20593;-80
2020/12/07 12:53:18;;;;;;;14.35;13.15;;;3.30;75.00;;;;;;5095710;29;20051;-79
2020/12/07 12:55:50;;;;;;;13.98;12.77;;;3.30;75.30;;;;;;5093813;29;20557;-78
2020/12/07 12:58:21;;;;;;;14.20;13.00;;;3.30;75.30;;;;;;5090865;29;20199;-79
2020/12/07 13:00:53;;;;;;;14.07;12.98;;;3.30;75.40;;;;;;5092517;29;20075;-77
2020/12/07 13:03:25;;;;;;;15.35;14.05;;;3.30;75.50;;;;;;5096706;29;20055;-78
2020/12/07 13:05:57;;;;;;;14.73;13.52;;;3.40;75.40;;;;;;5092661;29;20052;-77
2020/12/07 13:08:29;;;;;;;14.77;13.57;;;3.40;74.80;;;;;;5094704;29;20036;-76
2020/12/07 13:11:00;;;;;;;13.45;12.35;;;3.30;74.80;;;;;;5096705;29;20055;-77
2020/12/07 13:13:36;;;;;;;13.60;12.50;;;3.30;75.00;;;;;;5096875;29;20134;-77
2020/12/07 13:16:13;;;;;;;13.80;12.70;;;3.20;75.10;;;;;;5111747;28;20079;-80
2020/12/07 13:18:48;;;;;;;13.75;12.63;;;3.20;75.10;;;;;;5097038;28;20708;-77
2020/12/07 13:29:33;;;;;;;14.10;12.88;;;3.40;76.20;;;;;;5078798;29;20545;-78
2020/12/07 13:32:05;;;;;;;14.00;12.90;;;3.40;76.20;;;;;;5096566;29;20055;-78
2020/12/07 13:34:36;;;;;;;14.07;12.90;;;3.50;76.00;;;;;;5097497;29;20039;-78
2020/12/07 13:37:07;;;;;;;14.00;12.80;;;3.50;76.20;;;;;;5096823;29;20125;-77
2020/12/07 13:39:39;;;;;;;13.77;12.65;;;3.50;76.00;;;;;;5096351;29;20071;-76
2020/12/07 13:42:11;;;;;;;13.85;12.75;;;3.50;76.00;;;;;;5080259;29;20087;-80